Terminal Aerodrome Forecast
Issued by NWS

Home | Current Version | Previous Version | Graphics & Text | Print | Product List | Glossary On
Versions: 1 2 3 4 5 6 7 8 9 10 11 12 13 14 15
000
FTUS43 KUNR 280104 AAA
TAFGCC
TAF AMD
KGCC 280104Z 2801/2824 33009KT P6SM SCT120
      TEMPO 2806/2810 -TSRA BKN080CB
     FM281200 18009KT P6SM BKN100=

USA.gov is the U.S. government's official web portal to all federal, state and local government web resources and services.